createdAt,value
2022-08-31T00:02:03.291Z,0.52
2022-08-31T00:04:30.990Z,0.82
2022-08-31T00:06:57.434Z,0.55
2022-08-31T00:09:23.979Z,1.17
2022-08-31T00:11:50.283Z,0.93
2022-08-31T00:14:17.675Z,0.95
2022-08-31T00:16:44.659Z,0.50
2022-08-31T00:19:11.521Z,1.00
2022-08-31T00:21:39.156Z,1.00
2022-08-31T00:24:05.931Z,0.73
2022-08-31T00:26:32.254Z,0.82
2022-08-31T00:29:01.927Z,0.60
2022-08-31T00:31:28.317Z,0.90
2022-08-31T00:33:55.424Z,0.65
2022-08-31T00:36:22.911Z,0.50
2022-08-31T00:38:49.539Z,0.52
2022-08-31T00:41:18.084Z,0.82
2022-08-31T00:43:44.459Z,0.70
2022-08-31T00:46:11.932Z,0.60
2022-08-31T00:48:41.823Z,0.65
2022-08-31T00:51:08.327Z,0.40
2022-08-31T00:53:37.991Z,1.08
2022-08-31T00:56:04.833Z,1.33
2022-08-31T00:58:31.166Z,0.75
2022-08-31T01:00:58.594Z,0.77
2022-08-31T01:03:25.050Z,0.50
2022-08-31T01:05:51.749Z,0.43
2022-08-31T01:08:18.327Z,0.77
2022-08-31T01:10:48.064Z,1.25
2022-08-31T01:13:15.407Z,0.32
2022-08-31T01:15:45.289Z,0.93
2022-08-31T01:18:11.722Z,0.90
2022-08-31T01:20:48.617Z,0.90
2022-08-31T01:23:15.512Z,0.80
2022-08-31T01:25:43.114Z,0.68
2022-08-31T01:28:09.871Z,0.75
2022-08-31T01:30:36.702Z,1.00
2022-08-31T01:33:03.668Z,0.98
2022-08-31T01:35:30.066Z,1.98
2022-08-31T01:37:56.681Z,1.23
2022-08-31T01:40:36.922Z,1.00
2022-08-31T01:43:03.359Z,0.63
2022-08-31T01:45:29.715Z,1.02
2022-08-31T01:47:58.462Z,0.88
2022-08-31T01:50:24.775Z,1.13
2022-08-31T01:52:51.083Z,2.33
2022-08-31T01:55:17.455Z,1.35
2022-08-31T01:57:43.784Z,1.00
2022-08-31T02:00:10.578Z,1.20
2022-08-31T02:02:37.251Z,1.30
2022-08-31T02:05:05.350Z,1.27
2022-08-31T02:07:31.811Z,0.80
2022-08-31T02:09:58.370Z,1.27
2022-08-31T02:12:24.653Z,1.40
2022-08-31T02:14:50.962Z,1.40
2022-08-31T02:17:18.002Z,1.27
2022-08-31T02:19:44.311Z,1.10
2022-08-31T02:22:10.695Z,1.75
2022-08-31T02:24:37.062Z,1.58
2022-08-31T02:27:03.559Z,0.88
2022-08-31T02:29:29.877Z,1.65
2022-08-31T02:31:57.135Z,1.15
2022-08-31T02:34:23.444Z,1.70
2022-08-31T02:36:49.721Z,1.70
2022-08-31T02:39:16.105Z,1.30
2022-08-31T02:41:42.401Z,1.85
2022-08-31T02:44:08.741Z,1.88
2022-08-31T02:46:35.318Z,1.70
2022-08-31T02:49:01.919Z,2.05
2022-08-31T02:51:28.425Z,1.27
2022-08-31T02:53:54.780Z,1.55
2022-08-31T02:56:21.401Z,1.63
2022-08-31T02:58:54.545Z,1.10
2022-08-31T03:01:22.423Z,1.20
2022-08-31T03:03:48.913Z,1.33
2022-08-31T03:06:15.486Z,1.65
2022-08-31T03:08:42.221Z,1.40
2022-08-31T03:11:08.673Z,1.75
2022-08-31T03:13:39.814Z,1.83
2022-08-31T03:16:06.516Z,1.55
2022-08-31T03:18:33.707Z,1.60
2022-08-31T03:21:00.036Z,1.63
2022-08-31T03:23:26.523Z,1.13
2022-08-31T03:25:52.819Z,1.30
2022-08-31T03:28:19.307Z,1.52
2022-08-31T03:30:45.694Z,1.40
2022-08-31T03:33:12.135Z,1.38
2022-08-31T03:35:38.512Z,1.40
2022-08-31T03:38:05.392Z,2.60
2022-08-31T03:40:31.747Z,1.35
2022-08-31T03:42:58.850Z,1.38
2022-08-31T03:45:26.463Z,1.30
2022-08-31T03:47:52.736Z,1.70
2022-08-31T03:50:20.137Z,1.50
2022-08-31T03:52:46.484Z,1.35
2022-08-31T03:55:12.887Z,2.50
2022-08-31T03:57:39.272Z,1.20
2022-08-31T04:00:06.572Z,1.38
2022-08-31T04:02:37.385Z,1.48
2022-08-31T04:05:04.159Z,2.50
2022-08-31T04:07:30.443Z,1.45
2022-08-31T04:10:08.814Z,1.60
2022-08-31T04:12:35.139Z,1.67
2022-08-31T04:15:02.405Z,1.67
2022-08-31T04:17:28.707Z,1.55
2022-08-31T04:19:55.016Z,1.83
2022-08-31T04:22:21.356Z,1.90
2022-08-31T04:24:47.692Z,3.20
2022-08-31T04:27:14.013Z,1.88
2022-08-31T04:29:40.391Z,2.00
2022-08-31T04:32:06.703Z,1.85
2022-08-31T04:34:33.043Z,2.20
2022-08-31T04:36:59.509Z,2.28
2022-08-31T04:39:27.211Z,2.33
2022-08-31T04:41:58.637Z,2.45
2022-08-31T04:44:26.771Z,1.90
2022-08-31T04:46:53.516Z,2.03
2022-08-31T04:49:19.796Z,1.88
2022-08-31T04:51:46.072Z,2.90
2022-08-31T04:54:12.894Z,1.95
2022-08-31T04:56:41.300Z,1.77
2022-08-31T04:59:08.516Z,2.80
2022-08-31T05:01:42.899Z,1.80
2022-08-31T05:04:11.210Z,1.92
2022-08-31T05:06:38.782Z,2.22
2022-08-31T05:09:06.769Z,2.40
2022-08-31T05:11:33.524Z,2.67
2022-08-31T05:14:00.777Z,2.45
2022-08-31T05:16:27.328Z,2.50
2022-08-31T05:18:53.707Z,2.58
2022-08-31T05:21:28.207Z,3.25
2022-08-31T05:24:04.904Z,2.75
2022-08-31T05:26:33.612Z,2.83
2022-08-31T05:29:00.766Z,2.70
2022-08-31T05:31:29.036Z,2.50
2022-08-31T05:33:56.170Z,2.08
2022-08-31T05:36:22.518Z,2.15
2022-08-31T05:38:48.886Z,2.10
2022-08-31T05:41:22.170Z,2.30
2022-08-31T05:43:48.753Z,1.90
2022-08-31T05:46:15.732Z,3.08
2022-08-31T05:48:42.851Z,1.60
2022-08-31T05:51:16.814Z,2.63
2022-08-31T05:53:43.402Z,1.48
2022-08-31T05:56:11.617Z,1.65
2022-08-31T05:58:38.863Z,2.15
2022-08-31T06:01:12.143Z,1.77
2022-08-31T06:03:40.218Z,1.83
2022-08-31T06:06:08.568Z,1.27
2022-08-31T06:08:35.795Z,1.33
2022-08-31T06:11:02.864Z,1.05
2022-08-31T06:13:29.215Z,1.10
2022-08-31T06:15:59.441Z,1.40
2022-08-31T06:18:25.809Z,2.72
2022-08-31T06:21:02.069Z,2.00
2022-08-31T06:23:29.274Z,1.40
2022-08-31T06:26:02.645Z,1.13
2022-08-31T06:28:32.571Z,1.20
2022-08-31T06:33:25.806Z,1.60
2022-08-31T06:35:52.106Z,2.17
2022-08-31T06:38:18.415Z,0.82
2022-08-31T06:40:44.815Z,2.05
2022-08-31T06:43:11.189Z,2.30
2022-08-31T06:45:38.255Z,1.45
2022-08-31T06:48:04.596Z,1.67
2022-08-31T06:50:30.905Z,2.33
2022-08-31T06:52:57.316Z,2.03
2022-08-31T06:55:24.275Z,1.63
2022-08-31T06:57:53.275Z,1.90
2022-08-31T07:00:19.595Z,1.20
2022-08-31T07:02:45.958Z,1.00
2022-08-31T07:05:19.882Z,1.63
2022-08-31T07:07:50.709Z,1.63
2022-08-31T07:10:18.818Z,1.73
2022-08-31T07:12:45.089Z,1.17
2022-08-31T07:15:11.479Z,1.45
2022-08-31T07:17:37.799Z,1.77
2022-08-31T07:20:04.257Z,1.63
2022-08-31T07:22:30.568Z,1.65
2022-08-31T07:24:56.874Z,1.80
2022-08-31T07:27:23.215Z,1.70
2022-08-31T07:29:49.518Z,2.00
2022-08-31T07:32:17.367Z,3.08
2022-08-31T07:34:44.317Z,3.38
2022-08-31T07:37:29.106Z,2.67
2022-08-31T07:40:14.444Z,3.03
2022-08-31T07:42:44.706Z,2.50
2022-08-31T07:45:13.756Z,2.75
2022-08-31T07:47:45.290Z,3.97
2022-08-31T07:50:11.874Z,2.63
2022-08-31T07:52:44.859Z,1.98
2022-08-31T07:55:12.319Z,3.60
2022-08-31T07:57:44.224Z,2.00
2022-08-31T08:00:15.068Z,2.40
2022-08-31T08:02:42.083Z,2.60
2022-08-31T08:05:09.932Z,2.70
2022-08-31T08:07:37.297Z,2.40
2022-08-31T08:10:08.058Z,2.80
2022-08-31T08:12:36.215Z,2.35
2022-08-31T08:15:04.013Z,2.95
2022-08-31T08:17:30.378Z,3.92
2022-08-31T08:19:56.663Z,2.58
2022-08-31T08:22:48.455Z,2.38
2022-08-31T08:25:11.871Z,2.17
2022-08-31T08:27:38.169Z,2.63
2022-08-31T08:30:05.658Z,2.55
2022-08-31T08:32:31.980Z,1.85
2022-08-31T08:34:58.322Z,2.55
2022-08-31T08:37:41.357Z,2.50
2022-08-31T08:40:19.356Z,2.30
2022-08-31T08:42:45.686Z,2.38
2022-08-31T08:45:12.088Z,3.30
2022-08-31T08:47:39.574Z,1.92
2022-08-31T08:50:07.229Z,1.77
2022-08-31T08:52:41.454Z,2.05
2022-08-31T08:55:09.616Z,1.63
2022-08-31T08:57:38.932Z,2.45
2022-08-31T09:00:09.641Z,1.13
2022-08-31T09:02:46.031Z,1.52
2022-08-31T09:05:12.390Z,1.38
2022-08-31T09:07:44.417Z,0.85
2022-08-31T09:10:13.702Z,1.35
2022-08-31T09:13:01.648Z,1.00
2022-08-31T09:15:38.656Z,1.40
2022-08-31T09:18:30.425Z,1.02
2022-08-31T09:21:23.568Z,0.73
2022-08-31T09:24:10.158Z,0.55
2022-08-31T09:26:50.559Z,1.05
2022-08-31T09:29:20.776Z,0.75
2022-08-31T09:31:47.115Z,0.75
2022-08-31T09:34:36.296Z,0.45
2022-08-31T09:37:14.920Z,0.30
2022-08-31T09:39:41.328Z,1.17
2022-08-31T09:42:20.041Z,0.47
2022-08-31T09:44:48.211Z,0.47
2022-08-31T09:47:42.719Z,0.68
2022-08-31T09:50:11.056Z,0.25
2022-08-31T09:52:58.546Z,0.45
2022-08-31T09:55:28.177Z,0.30
2022-08-31T09:58:03.061Z,0.40
2022-08-31T10:00:36.276Z,0.52
2022-08-31T10:03:08.841Z,0.20
2022-08-31T10:05:40.473Z,0.20
2022-08-31T10:08:10.697Z,0.30
2022-08-31T10:10:39.108Z,0.63
2022-08-31T10:13:10.147Z,0.22
2022-08-31T10:15:42.770Z,0.60
2022-08-31T10:18:22.255Z,0.30
2022-08-31T10:23:20.726Z,0.22
2022-08-31T10:25:54.611Z,0.20
2022-08-31T10:28:32.086Z,0.20
2022-08-31T10:31:00.793Z,0.73
2022-08-31T10:33:50.227Z,0.15
2022-08-31T10:38:44.557Z,0.45
2022-08-31T10:41:16.793Z,0.10
2022-08-31T10:43:45.926Z,0.20
2022-08-31T10:46:13.652Z,0.20
2022-08-31T10:48:50.901Z,0.10
2022-08-31T10:51:36.129Z,0.10
2022-08-31T10:54:24.661Z,0.35
2022-08-31T10:56:59.065Z,0.10
2022-08-31T10:59:38.273Z,0.60
2022-08-31T11:02:23.017Z,0.38
2022-08-31T11:04:55.714Z,0.10
2022-08-31T11:07:40.609Z,0.20
2022-08-31T11:10:36.383Z,0.30
2022-08-31T11:13:05.554Z,0.00
2022-08-31T11:15:59.066Z,0.10
2022-08-31T11:18:41.096Z,0.10
2022-08-31T11:21:17.234Z,0.15
2022-08-31T11:24:02.341Z,0.13
2022-08-31T11:26:55.658Z,0.10
2022-08-31T11:29:21.920Z,0.10
2022-08-31T11:31:48.635Z,0.25
2022-08-31T11:34:25.562Z,0.05
2022-08-31T11:36:54.939Z,0.15
2022-08-31T11:39:26.678Z,0.40
2022-08-31T11:41:54.310Z,0.20
2022-08-31T11:44:26.746Z,0.22
2022-08-31T11:47:07.128Z,0.10
2022-08-31T11:49:35.187Z,0.20
2022-08-31T11:52:05.899Z,0.00
2022-08-31T11:54:41.492Z,0.20
2022-08-31T11:57:09.890Z,0.10
2022-08-31T11:59:38.545Z,0.17
2022-08-31T12:02:20.041Z,0.10
2022-08-31T12:04:47.550Z,0.10
2022-08-31T12:07:26.634Z,0.10
2022-08-31T12:10:02.116Z,0.00
2022-08-31T12:12:36.671Z,0.00
2022-08-31T12:15:07.733Z,0.05
2022-08-31T12:17:53.042Z,0.05
2022-08-31T12:20:56.978Z,0.30
2022-08-31T12:23:35.739Z,0.13
2022-08-31T12:28:47.073Z,0.17
2022-08-31T12:31:15.072Z,0.20
2022-08-31T12:33:47.987Z,0.15
2022-08-31T12:36:15.784Z,0.00
2022-08-31T12:38:42.116Z,0.10
2022-08-31T12:41:13.147Z,0.10
2022-08-31T12:43:43.837Z,0.10
2022-08-31T12:46:13.118Z,0.03
2022-08-31T12:48:45.756Z,0.10
2022-08-31T12:51:21.118Z,0.10
2022-08-31T12:53:56.732Z,0.28
2022-08-31T12:56:44.285Z,0.10
2022-08-31T12:59:10.533Z,0.05
2022-08-31T13:01:41.514Z,0.85
2022-08-31T13:04:09.312Z,0.10
2022-08-31T13:06:37.887Z,0.03
2022-08-31T13:09:05.372Z,0.30
2022-08-31T13:11:39.871Z,0.32
2022-08-31T13:14:20.827Z,0.10
2022-08-31T13:17:07.479Z,0.35
2022-08-31T13:19:34.976Z,0.28
2022-08-31T13:22:08.845Z,0.10
2022-08-31T13:24:37.105Z,0.15
2022-08-31T13:27:06.559Z,0.05
2022-08-31T13:29:40.993Z,0.45
2022-08-31T13:32:08.397Z,0.40
2022-08-31T13:34:39.287Z,0.65
2022-08-31T13:37:12.805Z,0.40
2022-08-31T13:39:45.911Z,0.65
2022-08-31T13:42:21.045Z,0.20
2022-08-31T13:44:51.998Z,0.28
2022-08-31T13:47:24.033Z,0.13
2022-08-31T13:49:53.686Z,0.10
2022-08-31T13:52:27.942Z,0.30
2022-08-31T13:55:06.492Z,0.17
2022-08-31T13:57:37.790Z,0.25
2022-08-31T14:00:22.990Z,0.00
2022-08-31T14:02:49.822Z,0.40
2022-08-31T14:05:30.495Z,0.10
2022-08-31T14:07:58.484Z,0.40
2022-08-31T14:10:27.634Z,0.00
2022-08-31T14:12:56.308Z,0.15
2022-08-31T14:15:40.984Z,0.57
2022-08-31T14:18:24.686Z,0.00
2022-08-31T14:21:20.489Z,0.10
2022-08-31T14:24:01.946Z,0.00
2022-08-31T14:26:36.730Z,0.00
2022-08-31T14:29:10.200Z,0.17
2022-08-31T14:31:40.781Z,0.47
2022-08-31T14:34:19.020Z,0.10
2022-08-31T14:36:52.876Z,0.20
2022-08-31T14:39:23.714Z,0.00
2022-08-31T14:41:50.830Z,0.20
2022-08-31T14:44:18.622Z,0.10
2022-08-31T14:46:44.910Z,0.20
2022-08-31T14:49:11.286Z,0.10
2022-08-31T14:51:39.066Z,0.55
2022-08-31T14:54:08.939Z,0.00
2022-08-31T14:56:38.153Z,0.80
2022-08-31T15:01:35.675Z,0.13
2022-08-31T15:04:04.027Z,1.05
2022-08-31T15:06:31.585Z,0.15
2022-08-31T15:08:59.239Z,0.00
2022-08-31T15:11:25.545Z,0.10
2022-08-31T15:13:53.377Z,0.10
2022-08-31T15:16:19.782Z,0.35
2022-08-31T15:18:46.414Z,0.35
2022-08-31T15:21:12.733Z,0.00
2022-08-31T15:23:41.665Z,0.43
2022-08-31T15:26:10.043Z,0.00
2022-08-31T15:28:39.486Z,0.30
2022-08-31T15:31:09.053Z,0.28
2022-08-31T15:33:39.795Z,0.00
2022-08-31T15:36:09.003Z,0.10
2022-08-31T15:38:36.811Z,0.08
2022-08-31T15:41:03.288Z,0.10
2022-08-31T15:43:29.604Z,0.10
2022-08-31T15:45:56.028Z,0.20
2022-08-31T15:48:41.184Z,0.05
2022-08-31T15:51:17.763Z,0.30
2022-08-31T15:53:52.723Z,0.20
2022-08-31T15:56:31.931Z,0.20
2022-08-31T15:58:58.553Z,0.00
2022-08-31T16:01:25.583Z,0.55
2022-08-31T16:03:56.006Z,0.10
2022-08-31T16:06:27.241Z,0.10
2022-08-31T16:08:55.425Z,0.10
2022-08-31T16:11:27.061Z,0.32
2022-08-31T16:14:01.058Z,0.00
2022-08-31T16:16:30.999Z,0.00
2022-08-31T16:18:58.482Z,0.10
2022-08-31T16:21:26.617Z,0.00
2022-08-31T16:23:59.574Z,0.10
2022-08-31T16:26:33.969Z,0.25
2022-08-31T16:29:01.096Z,0.32
2022-08-31T16:31:28.301Z,0.20
2022-08-31T16:33:55.762Z,0.20
2022-08-31T16:36:24.070Z,0.00
2022-08-31T16:38:51.202Z,0.05
2022-08-31T16:41:18.303Z,0.20
2022-08-31T16:43:58.242Z,0.00
2022-08-31T16:46:40.668Z,0.13
2022-08-31T16:49:26.511Z,0.08
2022-08-31T16:51:53.054Z,0.00
2022-08-31T16:54:19.417Z,0.00
2022-08-31T16:56:50.499Z,0.10
2022-08-31T16:59:18.730Z,0.00
2022-08-31T17:01:45.599Z,0.22
2022-08-31T17:04:18.911Z,0.47
2022-08-31T17:06:57.203Z,0.05
2022-08-31T17:09:24.899Z,0.13
2022-08-31T17:11:57.190Z,0.10
2022-08-31T17:14:32.268Z,0.00
2022-08-31T17:17:03.521Z,0.20
2022-08-31T17:19:31.319Z,0.45
2022-08-31T17:21:59.285Z,0.10
2022-08-31T17:24:28.050Z,0.30
2022-08-31T17:26:57.303Z,0.10
2022-08-31T17:29:23.770Z,0.10
2022-08-31T17:31:50.460Z,0.10
2022-08-31T17:34:18.772Z,0.20
2022-08-31T17:36:46.307Z,0.10
2022-08-31T17:39:14.803Z,0.20
2022-08-31T17:41:42.282Z,0.15
2022-08-31T17:44:09.204Z,0.20
2022-08-31T17:46:36.687Z,0.30
2022-08-31T17:49:03.480Z,0.13
2022-08-31T17:51:32.754Z,0.17
2022-08-31T17:54:01.940Z,0.60
2022-08-31T17:56:33.050Z,0.45
2022-08-31T17:58:59.557Z,0.30
2022-08-31T18:01:30.437Z,0.60
2022-08-31T18:03:58.459Z,0.10
2022-08-31T18:06:24.892Z,0.30
2022-08-31T18:08:51.702Z,0.13
2022-08-31T18:11:18.282Z,0.25
2022-08-31T18:13:45.046Z,0.28
2022-08-31T18:16:14.989Z,0.80
2022-08-31T18:18:45.936Z,0.10
2022-08-31T18:21:12.921Z,0.08
2022-08-31T18:23:40.052Z,0.05
2022-08-31T18:26:17.352Z,0.10
2022-08-31T18:28:43.814Z,0.57
2022-08-31T18:31:10.903Z,0.30
2022-08-31T18:33:37.333Z,0.63
2022-08-31T18:36:08.912Z,0.38
2022-08-31T18:38:35.987Z,0.25
2022-08-31T18:41:24.674Z,0.32
2022-08-31T18:44:09.795Z,0.30
2022-08-31T18:46:36.246Z,0.25
2022-08-31T18:49:12.138Z,0.35
2022-08-31T18:51:40.222Z,0.13
2022-08-31T18:54:06.904Z,0.10
2022-08-31T18:56:34.434Z,0.50
2022-08-31T18:59:00.837Z,0.65
2022-08-31T19:01:33.488Z,0.38
2022-08-31T19:04:02.114Z,0.60
2022-08-31T19:06:30.865Z,0.38
2022-08-31T19:08:57.477Z,0.20
2022-08-31T19:11:24.189Z,0.45
2022-08-31T19:13:51.540Z,0.10
2022-08-31T19:16:26.418Z,0.57
2022-08-31T19:18:55.976Z,0.10
2022-08-31T19:21:24.398Z,0.40
2022-08-31T19:23:51.755Z,0.10
2022-08-31T19:26:20.148Z,0.13
2022-08-31T19:28:48.841Z,0.05
2022-08-31T19:31:17.683Z,0.10
2022-08-31T19:33:45.658Z,0.20
2022-08-31T19:36:12.177Z,0.68
2022-08-31T19:38:40.035Z,0.17
2022-08-31T19:41:26.751Z,0.20
2022-08-31T19:44:04.117Z,0.10
2022-08-31T19:46:34.151Z,0.45
2022-08-31T19:49:00.605Z,0.03
2022-08-31T19:51:28.950Z,0.20
2022-08-31T19:53:56.214Z,0.98
2022-08-31T19:56:24.504Z,0.00
2022-08-31T19:58:51.903Z,0.40
2022-08-31T20:01:19.641Z,0.10
2022-08-31T20:03:47.892Z,0.30
2022-08-31T20:06:16.075Z,0.22
2022-08-31T20:08:43.436Z,0.20
2022-08-31T20:11:11.070Z,0.52
2022-08-31T20:13:38.858Z,0.00
2022-08-31T20:16:05.588Z,0.05
2022-08-31T20:18:32.278Z,0.10
2022-08-31T20:21:02.748Z,0.43
2022-08-31T20:23:30.219Z,0.00
2022-08-31T20:25:57.665Z,0.03
2022-08-31T20:28:26.479Z,0.10
2022-08-31T20:30:59.074Z,0.00
2022-08-31T20:33:26.725Z,0.38
2022-08-31T20:35:53.355Z,0.10
2022-08-31T20:38:20.393Z,0.20
2022-08-31T20:40:48.004Z,0.43
2022-08-31T20:43:14.498Z,0.20
2022-08-31T20:45:41.753Z,0.20
2022-08-31T20:48:26.966Z,0.38
2022-08-31T20:50:53.311Z,0.10
2022-08-31T20:53:39.044Z,0.10
2022-08-31T20:56:06.923Z,0.20
2022-08-31T20:58:33.254Z,0.10
2022-08-31T21:01:03.221Z,0.20
2022-08-31T21:05:55.837Z,0.10
2022-08-31T21:08:22.706Z,0.30
2022-08-31T21:10:48.973Z,0.40
2022-08-31T21:13:15.965Z,0.10
2022-08-31T21:15:44.109Z,0.85
2022-08-31T21:18:11.299Z,0.20
2022-08-31T21:20:37.779Z,0.10
2022-08-31T21:23:04.096Z,0.20
2022-08-31T21:25:31.463Z,0.15
2022-08-31T21:27:57.860Z,0.00
2022-08-31T21:30:24.983Z,1.00
2022-08-31T21:32:51.535Z,0.38
2022-08-31T21:35:19.368Z,0.30
2022-08-31T21:37:45.911Z,0.10
2022-08-31T21:40:12.331Z,0.30
2022-08-31T21:42:38.722Z,1.70
2022-08-31T21:45:05.303Z,0.03
2022-08-31T21:47:31.631Z,0.28
2022-08-31T21:49:57.929Z,0.10
2022-08-31T21:52:24.797Z,0.63
2022-08-31T21:54:51.741Z,0.63
2022-08-31T21:57:18.032Z,0.20
2022-08-31T21:59:44.346Z,0.28
2022-08-31T22:02:11.347Z,0.38
2022-08-31T22:04:39.123Z,0.40
2022-08-31T22:07:07.673Z,0.15
2022-08-31T22:09:34.958Z,0.13
2022-08-31T22:12:07.235Z,0.45
2022-08-31T22:14:36.122Z,0.30
2022-08-31T22:17:03.747Z,0.40
2022-08-31T22:19:35.899Z,0.28
2022-08-31T22:22:05.005Z,0.10
2022-08-31T22:24:32.546Z,0.30
2022-08-31T22:27:00.947Z,0.20
2022-08-31T22:29:30.883Z,0.35
2022-08-31T22:31:59.024Z,0.28
2022-08-31T22:34:25.447Z,0.25
2022-08-31T22:36:53.707Z,0.30
2022-08-31T22:39:21.647Z,0.20
2022-08-31T22:41:48.237Z,0.50
2022-08-31T22:44:16.391Z,0.28
2022-08-31T22:46:42.917Z,0.40
2022-08-31T22:49:09.433Z,0.40
2022-08-31T22:51:36.509Z,0.40
2022-08-31T22:54:04.006Z,0.35
2022-08-31T22:56:32.429Z,0.30
2022-08-31T22:59:03.054Z,0.70
2022-08-31T23:01:31.334Z,0.60
2022-08-31T23:04:00.726Z,1.35
2022-08-31T23:06:27.828Z,0.40
2022-08-31T23:08:55.011Z,0.70
2022-08-31T23:11:22.073Z,0.65
2022-08-31T23:13:52.681Z,0.63
2022-08-31T23:16:24.802Z,0.10
2022-08-31T23:18:52.344Z,0.50
2022-08-31T23:21:18.990Z,0.63
2022-08-31T23:23:45.783Z,1.58
2022-08-31T23:26:12.543Z,1.38
2022-08-31T23:28:39.625Z,0.32
2022-08-31T23:31:09.290Z,0.38
2022-08-31T23:33:36.052Z,0.45
2022-08-31T23:36:03.216Z,0.40
2022-08-31T23:38:32.660Z,0.40
2022-08-31T23:40:59.092Z,0.38
2022-08-31T23:43:26.649Z,0.30
2022-08-31T23:45:55.245Z,0.38
2022-08-31T23:48:22.962Z,0.43
2022-08-31T23:50:50.947Z,0.57
2022-08-31T23:53:17.681Z,0.70
2022-08-31T23:55:44.978Z,0.55
2022-08-31T23:58:13.948Z,0.30
